Time;durP1;ratioP1;P1;durP2;ratioP2;P2;SDS_P1;SDS_P2;PMS_P1;PMS_P2;Temp;Humidity;BMP_temperature;BMP_pressure;BME280_temperature;BME280_humidity;BME280_pressure;Samples;Min_cycle;Max_cycle;Signal;HPM_P1;HPM_P2
2021/11/27 00:00:24;;;;;;;17.37;11.13;;;;;;;10.71;100.00;100166.84;5132382;27;20419;-70
2021/11/27 00:02:50;;;;;;;19.83;12.23;;;;;;;10.73;100.00;100185.94;5132434;27;20408;-70
2021/11/27 00:05:17;;;;;;;20.33;11.50;;;;;;;10.99;100.00;100190.06;5131178;27;20404;-68
2021/11/27 00:07:43;;;;;;;18.20;11.00;;;;;;;11.11;100.00;100181.22;5134576;27;20794;-66
2021/11/27 00:10:12;;;;;;;17.60;10.67;;;;;;;11.13;100.00;100177.63;5132207;27;20938;-69
2021/11/27 00:12:37;;;;;;;20.33;11.20;;;;;;;11.10;100.00;100169.00;5127548;27;20445;-70
2021/11/27 00:15:04;;;;;;;20.90;11.30;;;;;;;11.05;100.00;100147.53;5131932;27;20791;-59
2021/11/27 00:17:29;;;;;;;15.67;9.13;;;;;;;10.98;100.00;100148.97;5135042;27;20154;-60
2021/11/27 00:19:55;;;;;;;18.80;10.63;;;;;;;10.96;100.00;100139.53;5133325;27;20464;-70
2021/11/27 00:22:20;;;;;;;18.20;10.50;;;;;;;10.80;100.00;100147.75;5135397;27;20594;-67
2021/11/27 00:24:46;;;;;;;17.67;11.00;;;;;;;10.70;100.00;100157.28;5145462;27;20170;-64
2021/11/27 00:27:12;;;;;;;22.30;11.57;;;;;;;10.67;100.00;100154.91;5133778;27;20159;-66
2021/11/27 00:29:37;;;;;;;19.07;11.83;;;;;;;10.57;100.00;100158.22;5132599;27;20225;-62
2021/11/27 00:32:03;;;;;;;17.27;11.63;;;;;;;10.46;100.00;100152.97;5132160;27;20186;-67
2021/11/27 00:34:30;;;;;;;20.57;10.97;;;;;;;10.53;100.00;100154.16;5143923;27;20186;-65
2021/11/27 00:36:56;;;;;;;18.83;11.30;;;;;;;10.56;100.00;100163.59;5150604;27;20402;-64
2021/11/27 00:39:22;;;;;;;22.43;12.20;;;;;;;10.54;100.00;100161.09;5136713;27;20265;-62
2021/11/27 00:41:49;;;;;;;22.13;12.40;;;;;;;10.53;100.00;100166.47;5134607;27;20166;-65
2021/11/27 00:44:15;;;;;;;21.80;10.37;;;;;;;10.52;100.00;100160.38;5138966;27;20458;-70
2021/11/27 00:46:41;;;;;;;17.20;11.13;;;;;;;10.51;100.00;100163.97;5142741;27;20417;-67
2021/11/27 00:49:06;;;;;;;21.50;12.17;;;;;;;10.49;100.00;100151.88;5132134;27;20423;-70
2021/11/27 00:51:32;;;;;;;19.27;12.10;;;;;;;10.44;100.00;100154.03;5137218;27;20191;-70
2021/11/27 00:53:58;;;;;;;21.27;12.53;;;;;;;10.33;100.00;100148.75;5151181;27;20162;-70
2021/11/27 00:56:25;;;;;;;17.37;10.57;;;;;;;10.37;100.00;100153.66;5132508;27;20420;-70
2021/11/27 00:58:51;;;;;;;20.33;11.20;;;;;;;10.39;100.00;100156.16;5149459;27;20262;-72
2021/11/27 01:01:24;;;;;;;20.93;10.07;;;;;;;10.33;100.00;100159.25;5135209;27;20412;-67
2021/11/27 01:03:50;;;;;;;15.43;9.20;;;;;;;10.35;100.00;100157.34;5131367;27;20427;-70
2021/11/27 01:06:20;;;;;;;14.63;10.30;;;;;;;10.31;100.00;100162.00;5130993;27;20982;-70
2021/11/27 01:08:48;;;;;;;22.70;13.27;;;;;;;10.25;100.00;100176.41;5130487;27;20435;-70
2021/11/27 01:11:18;;;;;;;17.47;10.90;;;;;;;10.19;100.00;100176.81;5130781;27;20440;-70
2021/11/27 01:13:46;;;;;;;19.53;10.70;;;;;;;10.23;100.00;100173.06;5112748;27;20459;-70
2021/11/27 01:16:15;;;;;;;15.90;9.70;;;;;;;10.31;100.00;100169.03;5112227;27;20447;-71
2021/11/27 01:18:41;;;;;;;18.13;7.90;;;;;;;10.40;100.00;100165.72;5129391;27;20477;-68
2021/11/27 01:21:11;;;;;;;14.57;7.50;;;;;;;10.49;100.00;100163.22;5130686;27;20442;-61
2021/11/27 01:23:40;;;;;;;13.20;7.87;;;;;;;10.57;100.00;100162.63;5141108;27;20439;-64
2021/11/27 01:26:06;;;;;;;12.30;7.73;;;;;;;10.49;100.00;100162.38;5130125;27;20412;-63
2021/11/27 01:28:32;;;;;;;15.03;8.80;;;;;;;10.52;100.00;100165.63;5130849;27;20423;-64
2021/11/27 01:30:59;;;;;;;12.20;7.60;;;;;;;10.55;100.00;100162.75;5130424;27;20817;-67
2021/11/27 01:33:26;;;;;;;14.40;8.20;;;;;;;10.47;100.00;100180.06;5126905;27;20178;-63
2021/11/27 01:35:53;;;;;;;16.00;8.60;;;;;;;10.36;100.00;100182.66;5133356;27;20438;-65
2021/11/27 01:38:19;;;;;;;14.97;8.20;;;;;;;10.35;100.00;100179.19;5130262;27;20937;-69
2021/11/27 01:40:45;;;;;;;15.20;8.90;;;;;;;10.36;100.00;100177.41;5111465;27;20407;-68
2021/11/27 01:43:11;;;;;;;17.40;8.40;;;;;;;10.23;100.00;100166.97;5130710;27;20400;-69
2021/11/27 01:45:37;;;;;;;15.57;8.40;;;;;;;10.18;100.00;100158.56;5127900;27;20422;-69
2021/11/27 01:48:07;;;;;;;15.23;8.93;;;;;;;10.28;100.00;100157.00;5129990;27;20503;-66
2021/11/27 01:50:38;;;;;;;17.37;9.30;;;;;;;10.25;100.00;100149.31;5130265;27;20432;-71
2021/11/27 01:53:04;;;;;;;13.53;9.10;;;;;;;10.17;100.00;100152.50;5130192;27;20420;-70
2021/11/27 01:55:30;;;;;;;13.17;8.53;;;;;;;10.09;100.00;100159.25;5130246;27;20946;-71
2021/11/27 01:57:56;;;;;;;13.93;8.63;;;;;;;10.10;100.00;100161.75;5114025;27;20163;-72
2021/11/27 02:00:26;;;;;;;13.43;8.87;;;;;;;10.06;100.00;100165.59;5128083;27;20501;-68
2021/11/27 02:02:53;;;;;;;17.13;9.40;;;;;;;9.97;100.00;100166.25;5111572;27;20434;-67
2021/11/27 02:05:19;;;;;;;14.77;8.93;;;;;;;9.99;100.00;100170.44;5145247;27;20414;-69
2021/11/27 02:07:45;;;;;;;16.43;8.80;;;;;;;9.94;100.00;100169.94;5150788;27;20408;-71
2021/11/27 02:10:14;;;;;;;13.80;8.50;;;;;;;9.96;100.00;100170.66;5144651;27;20985;-70
2021/11/27 02:12:41;;;;;;;14.00;9.57;;;;;;;9.96;100.00;100162.78;5128517;27;20487;-70
2021/11/27 02:15:07;;;;;;;14.13;9.23;;;;;;;9.95;100.00;100162.91;5135132;27;20884;-70
2021/11/27 02:17:33;;;;;;;13.63;8.60;;;;;;;9.92;100.00;100163.97;5129025;27;20916;-71
2021/11/27 02:19:59;;;;;;;13.67;9.30;;;;;;;9.92;100.00;100168.38;5129248;27;20910;-62
2021/11/27 02:22:25;;;;;;;16.57;10.53;;;;;;;9.82;100.00;100165.56;5129408;27;20173;-69
2021/11/27 02:24:50;;;;;;;14.40;9.03;;;;;;;9.78;100.00;100161.50;5130811;27;20166;-66
2021/11/27 02:27:16;;;;;;;18.87;10.53;;;;;;;9.69;100.00;100165.66;5124595;27;20170;-68
2021/11/27 02:29:42;;;;;;;15.53;9.10;;;;;;;9.63;100.00;100162.63;5129584;27;20158;-70
2021/11/27 02:32:09;;;;;;;15.40;9.30;;;;;;;9.59;100.00;100171.66;5128708;27;20459;-71
2021/11/27 02:34:35;;;;;;;15.23;9.17;;;;;;;9.61;100.00;100169.78;5129061;27;20185;-70
2021/11/27 02:37:06;;;;;;;13.20;8.73;;;;;;;9.62;100.00;100171.44;5129327;27;20419;-65
2021/11/27 02:39:32;;;;;;;13.90;8.80;;;;;;;9.70;100.00;100174.34;5128773;27;20430;-70
2021/11/27 02:41:58;;;;;;;12.97;8.47;;;;;;;9.87;100.00;100170.50;5128718;28;20416;-69
2021/11/27 02:44:26;;;;;;;15.63;9.13;;;;;;;9.85;100.00;100168.00;5128032;27;20454;-63
2021/11/27 02:46:53;;;;;;;17.90;9.00;;;;;;;9.94;100.00;100175.19;5140319;27;20779;-66
2021/11/27 02:49:19;;;;;;;16.57;9.17;;;;;;;9.96;100.00;100181.16;5128859;28;20856;-70
2021/11/27 02:51:45;;;;;;;13.63;8.30;;;;;;;9.98;100.00;100184.53;5128926;28;21291;-68
2021/11/27 02:54:12;;;;;;;12.80;8.17;;;;;;;10.01;100.00;100183.44;5129221;28;20408;-70
2021/11/27 02:56:38;;;;;;;15.87;9.37;;;;;;;9.99;100.00;100198.47;5130807;27;20412;-69
2021/11/27 02:59:25;;;;;;;14.23;9.20;;;;;;;10.01;100.00;100207.91;5129394;28;20465;-67
2021/11/27 03:01:54;;;;;;;16.23;8.47;;;;;;;9.96;100.00;100191.66;5128936;28;20424;-63
2021/11/27 03:04:20;;;;;;;14.63;9.00;;;;;;;9.92;100.00;100189.38;5128656;28;20820;-67
2021/11/27 03:06:46;;;;;;;14.37;9.10;;;;;;;9.88;100.00;100187.91;5129172;27;20419;-70
2021/11/27 03:09:18;;;;;;;13.73;8.83;;;;;;;9.77;100.00;100203.59;5129433;28;20420;-71
2021/11/27 03:11:46;;;;;;;14.63;9.30;;;;;;;9.72;100.00;100207.38;5129822;27;20455;-69
2021/11/27 03:14:12;;;;;;;15.33;10.10;;;;;;;9.71;100.00;100208.34;5130954;27;20453;-70
2021/11/27 03:16:38;;;;;;;16.43;9.13;;;;;;;9.69;100.00;100204.16;5128430;27;20416;-67
2021/11/27 03:19:05;;;;;;;15.03;9.27;;;;;;;9.58;100.00;100198.81;5128367;28;20408;-70
2021/11/27 03:21:31;;;;;;;16.97;10.60;;;;;;;9.44;100.00;100192.78;5128564;28;20767;-63
2021/11/27 03:23:57;;;;;;;17.23;10.83;;;;;;;9.32;100.00;100203.31;5127211;28;20465;-69
2021/11/27 03:26:22;;;;;;;16.40;9.63;;;;;;;9.24;100.00;100203.84;5128438;27;20184;-63
2021/11/27 03:28:48;;;;;;;16.40;10.43;;;;;;;9.14;100.00;100222.00;5127915;28;20940;-66
2021/11/27 03:31:14;;;;;;;18.87;9.67;;;;;;;9.09;100.00;100221.47;5128566;28;20242;-70
2021/11/27 03:33:40;;;;;;;20.53;11.50;;;;;;;9.05;100.00;100222.63;5129204;28;20693;-64
2021/11/27 03:36:06;;;;;;;19.00;10.93;;;;;;;8.98;100.00;100221.34;5139172;27;20256;-68
2021/11/27 03:38:31;;;;;;;21.03;12.50;;;;;;;8.95;100.00;100223.34;5128352;28;20166;-63
2021/11/27 03:40:58;;;;;;;20.80;10.77;;;;;;;8.96;100.00;100244.22;5129312;28;20458;-63
2021/11/27 03:43:23;;;;;;;18.47;10.93;;;;;;;8.89;100.00;100237.72;5130674;28;20245;-64
2021/11/27 03:45:49;;;;;;;17.70;11.07;;;;;;;8.93;100.00;100230.50;5141588;27;20926;-68
2021/11/27 03:48:17;;;;;;;19.10;11.23;;;;;;;8.87;100.00;100242.22;5136281;27;20158;-59
2021/11/27 03:50:42;;;;;;;17.60;11.60;;;;;;;8.87;100.00;100236.97;5130584;28;20177;-69
2021/11/27 03:53:12;;;;;;;22.30;11.87;;;;;;;8.84;100.00;100234.56;5131414;28;20793;-71
2021/11/27 03:55:38;;;;;;;17.23;11.47;;;;;;;8.88;100.00;100233.41;5132621;27;20706;-59
2021/11/27 03:58:03;;;;;;;22.13;13.57;;;;;;;8.91;100.00;100227.97;5133019;27;20422;-71
2021/11/27 04:00:29;;;;;;;18.83;11.77;;;;;;;8.82;100.00;100234.66;5138695;27;20411;-69
2021/11/27 04:02:55;;;;;;;21.27;12.57;;;;;;;8.89;100.00;100240.31;5133819;27;20177;-71
2021/11/27 04:05:22;;;;;;;22.17;12.67;;;;;;;8.97;100.00;100253.75;5140938;27;20165;-71
2021/11/27 04:07:54;;;;;;;20.40;13.27;;;;;;;9.02;100.00;100254.28;5146952;27;20407;-69
2021/11/27 04:10:19;;;;;;;23.50;12.90;;;;;;;8.98;100.00;100254.56;5134340;27;20404;-68
2021/11/27 04:12:44;;;;;;;22.00;13.67;;;;;;;8.97;100.00;100253.75;5133848;27;20454;-70
2021/11/27 04:15:10;;;;;;;21.17;13.27;;;;;;;8.89;100.00;100261.28;5135130;27;20596;-69
2021/11/27 04:17:36;;;;;;;21.87;13.17;;;;;;;9.01;100.00;100249.97;5133971;27;20201;-62
2021/11/27 04:20:02;;;;;;;20.97;12.40;;;;;;;9.04;100.00;100243.69;5134215;27;20202;-60
2021/11/27 04:22:28;;;;;;;23.77;11.93;;;;;;;9.17;100.00;100241.91;5134312;27;20200;-60
2021/11/27 04:24:54;;;;;;;19.93;11.60;;;;;;;9.32;100.00;100245.25;5136048;27;20396;-68
2021/11/27 04:27:19;;;;;;;16.80;10.50;;;;;;;9.47;100.00;100238.09;5140251;27;20167;-62
2021/11/27 04:29:45;;;;;;;16.93;10.53;;;;;;;9.53;100.00;100228.03;5133864;27;20170;-68
2021/11/27 04:32:11;;;;;;;17.90;9.13;;;;;;;9.66;100.00;100228.81;5134129;27;20300;-65
2021/11/27 04:34:37;;;;;;;13.33;7.90;;;;;;;9.86;100.00;100223.94;5134354;27;20628;-69
2021/11/27 04:37:02;;;;;;;13.93;9.60;;;;;;;9.88;100.00;100217.59;5136653;27;20552;-71
2021/11/27 04:39:28;;;;;;;15.90;8.60;;;;;;;9.92;100.00;100220.88;5133968;27;20159;-71
2021/11/27 04:41:53;;;;;;;15.10;9.50;;;;;;;9.93;100.00;100217.28;5133654;27;20205;-64
2021/11/27 04:44:19;;;;;;;14.70;8.50;;;;;;;9.90;100.00;100230.63;5136472;27;20170;-69
2021/11/27 04:46:44;;;;;;;15.83;10.17;;;;;;;9.88;100.00;100235.13;5134676;27;20539;-69
2021/11/27 04:49:10;;;;;;;14.67;8.87;;;;;;;9.87;100.00;100241.34;5133116;27;20162;-67
2021/11/27 04:51:35;;;;;;;13.50;9.10;;;;;;;9.84;100.00;100237.16;5132928;27;20264;-69
2021/11/27 04:54:01;;;;;;;13.90;9.37;;;;;;;9.81;100.00;100233.91;5133939;27;20641;-70
2021/11/27 04:56:26;;;;;;;15.13;9.53;;;;;;;9.73;100.00;100235.28;5133210;27;20158;-67
2021/11/27 04:58:52;;;;;;;16.30;9.50;;;;;;;9.71;100.00;100244.22;5133104;27;20752;-70
2021/11/27 05:01:18;;;;;;;14.50;8.93;;;;;;;9.60;100.00;100247.63;5133390;27;20162;-69
2021/11/27 05:03:43;;;;;;;15.07;10.10;;;;;;;9.48;100.00;100256.34;5134237;27;20211;-71
2021/11/27 05:06:09;;;;;;;16.43;11.70;;;;;;;9.37;100.00;100262.34;5129044;27;20417;-64
2021/11/27 05:08:34;;;;;;;19.37;12.23;;;;;;;9.32;100.00;100259.19;5129937;27;20215;-64
2021/11/27 05:11:00;;;;;;;18.10;11.37;;;;;;;9.24;100.00;100265.91;5133100;27;20548;-65
2021/11/27 05:13:25;;;;;;;19.67;11.63;;;;;;;9.17;100.00;100271.56;5133202;27;20602;-61
2021/11/27 05:15:51;;;;;;;16.40;10.57;;;;;;;9.13;100.00;100270.09;5133135;27;20162;-67
2021/11/27 05:18:16;;;;;;;20.57;11.10;;;;;;;9.20;100.00;100269.69;5133106;27;20174;-67
2021/11/27 05:20:43;;;;;;;16.23;10.77;;;;;;;9.16;100.00;100269.91;5132747;27;20749;-69
2021/11/27 05:23:09;;;;;;;18.17;11.33;;;;;;;9.11;100.00;100264.13;5132671;27;20163;-70
2021/11/27 05:25:34;;;;;;;16.37;10.43;;;;;;;9.09;100.00;100270.41;5133049;27;20432;-70
2021/11/27 05:28:00;;;;;;;23.93;13.33;;;;;;;9.09;100.00;100263.41;5133124;27;20491;-66
2021/11/27 05:30:28;;;;;;;21.90;15.87;;;;;;;9.10;100.00;100259.00;5132843;27;20206;-69
2021/11/27 05:35:19;;;;;;;20.53;12.57;;;;;;;9.08;100.00;100271.38;5131885;27;20434;-64
2021/11/27 05:37:45;;;;;;;20.00;12.53;;;;;;;9.10;100.00;100278.19;5132352;27;20673;-69
2021/11/27 05:40:13;;;;;;;17.50;12.00;;;;;;;9.09;100.00;100280.91;5132663;27;20154;-68
2021/11/27 05:42:39;;;;;;;21.70;13.30;;;;;;;9.13;100.00;100287.59;5133129;27;20404;-70
2021/11/27 05:45:05;;;;;;;21.70;12.73;;;;;;;9.20;100.00;100290.66;5131588;27;20861;-64
2021/11/27 05:47:30;;;;;;;19.13;13.33;;;;;;;9.27;100.00;100286.66;5132791;27;20162;-66
2021/11/27 05:49:56;;;;;;;18.50;13.10;;;;;;;9.26;100.00;100290.22;5130219;27;20861;-60
2021/11/27 05:52:22;;;;;;;20.23;13.10;;;;;;;9.25;100.00;100288.56;5131954;27;20189;-65
2021/11/27 05:54:48;;;;;;;19.33;12.30;;;;;;;9.25;100.00;100293.81;5132563;27;20420;-71
2021/11/27 05:57:13;;;;;;;21.40;13.30;;;;;;;9.27;100.00;100302.38;5132758;27;20170;-68
2021/11/27 05:59:39;;;;;;;20.43;13.30;;;;;;;9.33;100.00;100305.44;5132710;27;20261;-61
2021/11/27 06:02:04;;;;;;;21.93;13.53;;;;;;;9.33;100.00;100296.72;5133708;27;20558;-69
2021/11/27 06:04:30;;;;;;;20.00;12.87;;;;;;;9.32;100.00;100313.41;5133785;27;20170;-69
2021/11/27 06:06:57;;;;;;;20.40;12.20;;;;;;;9.41;100.00;100321.47;5132946;27;20178;-69
2021/11/27 06:09:22;;;;;;;17.10;10.90;;;;;;;9.53;100.00;100325.06;5132308;27;20167;-68
2021/11/27 06:11:48;;;;;;;17.23;11.07;;;;;;;9.65;100.00;100324.19;5131781;27;20467;-66
2021/11/27 06:14:14;;;;;;;19.50;12.53;;;;;;;9.67;100.00;100329.31;5131935;27;20400;-64
2021/11/27 06:16:39;;;;;;;21.63;12.80;;;;;;;9.74;100.00;100325.31;5131991;27;20158;-68
2021/11/27 06:19:05;;;;;;;21.03;12.90;;;;;;;9.84;100.00;100312.41;5131972;27;20982;-70
2021/11/27 06:21:31;;;;;;;17.97;12.20;;;;;;;9.91;100.00;100318.91;5131107;27;20196;-70
2021/11/27 06:23:56;;;;;;;17.07;11.70;;;;;;;10.05;100.00;100310.03;5131733;27;20170;-67
2021/11/27 06:26:23;;;;;;;20.60;11.70;;;;;;;10.10;100.00;100321.88;5131699;27;20245;-67
2021/11/27 06:28:49;;;;;;;21.30;15.07;;;;;;;10.07;100.00;100323.91;5132218;27;20545;-64
2021/11/27 06:31:15;;;;;;;24.13;13.03;;;;;;;10.15;100.00;100327.66;5130773;27;20455;-67
2021/11/27 06:33:42;;;;;;;19.13;13.40;;;;;;;10.20;100.00;100324.69;5132373;27;20476;-63
2021/11/27 06:36:07;;;;;;;21.53;13.93;;;;;;;10.25;100.00;100317.34;5132116;27;20848;-70
2021/11/27 06:38:33;;;;;;;27.33;16.40;;;;;;;10.24;100.00;100332.25;5131712;27;20931;-65
2021/11/27 06:40:59;;;;;;;24.83;15.00;;;;;;;10.28;100.00;100349.50;5131087;27;20173;-69
2021/11/27 06:43:25;;;;;;;23.80;15.63;;;;;;;10.36;100.00;100356.81;5132091;28;20439;-61
2021/11/27 06:45:51;;;;;;;19.03;14.07;;;;;;;10.46;100.00;100351.72;5131914;28;20947;-67
2021/11/27 06:48:17;;;;;;;23.00;16.00;;;;;;;10.46;100.00;100354.34;5132136;28;20547;-70
2021/11/27 06:50:42;;;;;;;27.73;16.57;;;;;;;10.44;100.00;100356.25;5130920;28;20416;-70
2021/11/27 06:53:08;;;;;;;21.87;15.33;;;;;;;10.49;100.00;100365.47;5131727;28;20205;-70
2021/11/27 06:55:34;;;;;;;21.70;15.70;;;;;;;10.52;100.00;100370.50;5139855;27;20157;-67
2021/11/27 06:58:00;;;;;;;20.70;13.93;;;;;;;10.70;100.00;100372.75;5142100;27;20155;-66
2021/11/27 07:00:26;;;;;;;27.60;16.50;;;;;;;10.79;100.00;100369.44;5131257;28;20415;-69
2021/11/27 07:02:51;;;;;;;23.23;15.53;;;;;;;10.81;100.00;100362.28;5131440;28;20445;-69
2021/11/27 07:05:17;;;;;;;24.87;14.97;;;;;;;10.90;100.00;100368.66;5131978;28;20454;-68
2021/11/27 07:07:42;;;;;;;31.93;15.00;;;;;;;11.03;100.00;100369.41;5131087;28;20552;-68
2021/11/27 07:10:08;;;;;;;24.43;14.83;;;;;;;11.15;100.00;100368.50;5131006;28;20257;-62
2021/11/27 07:12:34;;;;;;;22.97;14.80;;;;;;;11.14;100.00;100385.22;5131023;28;20186;-64
2021/11/27 07:15:02;;;;;;;25.40;15.90;;;;;;;11.26;100.00;100378.19;5130507;28;20404;-59
2021/11/27 07:17:30;;;;;;;21.30;15.17;;;;;;;11.26;100.00;100372.94;5123851;27;20166;-60
2021/11/27 07:19:56;;;;;;;20.50;14.30;;;;;;;11.27;100.00;100372.84;5138366;27;20416;-63
2021/11/27 07:22:21;;;;;;;20.10;13.60;;;;;;;11.43;100.00;100375.13;5131257;28;20894;-70
2021/11/27 07:24:47;;;;;;;22.73;14.43;;;;;;;11.57;100.00;100379.34;5131252;28;20600;-71
2021/11/27 07:27:12;;;;;;;19.90;12.63;;;;;;;11.85;100.00;100376.25;5130784;28;20150;-67
2021/11/27 07:29:39;;;;;;;16.37;10.93;;;;;;;12.04;100.00;100380.94;5130844;28;20662;-66
2021/11/27 07:32:05;;;;;;;13.17;8.43;;;;;;;12.26;100.00;100385.34;5132639;27;20186;-59
2021/11/27 07:34:31;;;;;;;17.03;9.40;;;;;;;12.43;100.00;100384.00;5135000;27;20424;-67
2021/11/27 07:36:57;;;;;;;13.43;8.33;;;;;;;12.61;100.00;100379.03;5134257;27;20987;-69
2021/11/27 07:39:23;;;;;;;14.03;6.77;;;;;;;12.76;100.00;100378.63;5135112;27;20154;-66
2021/11/27 07:41:50;;;;;;;13.67;8.47;;;;;;;12.88;100.00;100375.94;5134701;27;20460;-66
2021/11/27 07:44:15;;;;;;;11.47;7.23;;;;;;;12.95;100.00;100377.97;5134381;27;20404;-69
2021/11/27 07:46:41;;;;;;;12.57;6.73;;;;;;;13.08;100.00;100379.59;5134658;27;20490;-62
2021/11/27 07:49:07;;;;;;;13.20;6.60;;;;;;;13.18;100.00;100367.28;5117476;27;20193;-62
2021/11/27 07:51:32;;;;;;;12.10;7.83;;;;;;;13.27;100.00;100364.75;5117976;27;20980;-67
2021/11/27 07:53:59;;;;;;;9.97;5.70;;;;;;;13.30;100.00;100363.69;5134745;27;20177;-69
2021/11/27 07:56:25;;;;;;;13.47;7.70;;;;;;;13.36;100.00;100355.22;5133434;27;20243;-66
2021/11/27 07:58:51;;;;;;;12.60;7.63;;;;;;;13.40;100.00;100359.28;5134111;27;20400;-63
2021/11/27 08:01:16;;;;;;;13.43;8.30;;;;;;;13.49;100.00;100352.38;5136640;27;20423;-68
2021/11/27 08:03:42;;;;;;;15.60;9.10;;;;;;;13.54;100.00;100353.66;5133145;27;20159;-68
2021/11/27 08:06:08;;;;;;;13.93;8.67;;;;;;;13.72;100.00;100353.88;5133257;27;20163;-68
2021/11/27 08:08:35;;;;;;;14.83;7.37;;;;;;;13.78;100.00;100358.63;5132990;27;20789;-68
2021/11/27 08:11:01;;;;;;;12.30;8.10;;;;;;;13.89;100.00;100349.78;5135147;27;20165;-64
2021/11/27 08:13:26;;;;;;;11.17;6.37;;;;;;;14.07;100.00;100356.13;5132648;27;20412;-67
2021/11/27 08:15:52;;;;;;;10.33;5.30;;;;;;;14.16;100.00;100359.75;5134135;27;20392;-61
2021/11/27 08:18:18;;;;;;;10.03;6.23;;;;;;;14.27;100.00;100350.84;5134071;27;20201;-70
2021/11/27 08:20:50;;;;;;;12.30;7.13;;;;;;;14.37;100.00;100364.94;5134540;27;20186;-67
2021/11/27 08:23:18;;;;;;;12.13;7.07;;;;;;;14.38;100.00;100377.19;5133705;27;20167;-70
2021/11/27 08:25:45;;;;;;;11.10;7.10;;;;;;;14.50;100.00;100375.28;5115562;27;20447;-68
2021/11/27 08:28:11;;;;;;;15.13;10.23;;;;;;;14.55;100.00;100381.00;5134032;27;20423;-69
2021/11/27 08:30:36;;;;;;;15.90;10.20;;;;;;;14.81;100.00;100378.66;5134128;27;20436;-62
2021/11/27 08:33:02;;;;;;;17.30;11.47;;;;;;;15.10;100.00;100381.31;5133715;27;20684;-65
2021/11/27 08:35:27;;;;;;;15.53;9.60;;;;;;;15.30;100.00;100388.25;5133796;27;20198;-67
2021/11/27 08:37:53;;;;;;;15.87;9.90;;;;;;;15.38;100.00;100382.25;5134840;27;20257;-71
2021/11/27 08:40:19;;;;;;;11.90;7.60;;;;;;;15.36;100.00;100376.28;5138622;27;20565;-71
2021/11/27 08:42:45;;;;;;;15.90;8.00;;;;;;;15.51;100.00;100378.31;5132718;27;20159;-73
2021/11/27 08:45:12;;;;;;;11.80;7.97;;;;;;;15.76;100.00;100376.88;5133435;27;20400;-68
2021/11/27 08:47:37;;;;;;;13.80;9.00;;;;;;;15.95;100.00;100368.03;5132583;27;20411;-66
2021/11/27 08:50:04;;;;;;;15.03;7.83;;;;;;;15.99;100.00;100352.66;5133900;27;20384;-72
2021/11/27 08:52:29;;;;;;;15.63;8.50;;;;;;;15.95;100.00;100359.25;5132738;27;20194;-69
2021/11/27 08:54:55;;;;;;;14.77;8.80;;;;;;;15.85;100.00;100355.78;5136616;27;20408;-66
2021/11/27 08:57:20;;;;;;;10.53;6.23;;;;;;;15.85;100.00;100350.50;5152577;27;20632;-69
2021/11/27 08:59:46;;;;;;;10.90;6.63;;;;;;;15.88;100.00;100344.91;5132414;27;20202;-69
2021/11/27 09:02:12;;;;;;;10.07;5.53;;;;;;;15.90;100.00;100349.06;5133725;27;20170;-65
2021/11/27 09:04:38;;;;;;;9.93;5.87;;;;;;;15.81;100.00;100342.84;5133251;27;20151;-66
2021/11/27 09:07:04;;;;;;;7.87;4.60;;;;;;;16.02;100.00;100345.28;5133308;27;20441;-67
2021/11/27 09:09:31;;;;;;;8.40;4.87;;;;;;;16.25;100.00;100339.56;5133729;27;20392;-70
2021/11/27 09:11:57;;;;;;;11.03;5.40;;;;;;;16.25;100.00;100344.88;5133148;27;20443;-69
2021/11/27 09:14:22;;;;;;;7.97;3.97;;;;;;;16.28;100.00;100328.66;5132993;27;20388;-65
2021/11/27 09:16:51;;;;;;;8.87;4.80;;;;;;;16.42;100.00;100325.50;5133398;27;20679;-66
2021/11/27 09:19:17;;;;;;;13.60;4.97;;;;;;;16.54;100.00;100332.22;5132703;27;20170;-69
2021/11/27 09:21:43;;;;;;;9.10;4.67;;;;;;;16.61;100.00;100316.53;5132368;27;20397;-69
2021/11/27 09:24:09;;;;;;;12.93;5.00;;;;;;;17.09;100.00;100315.31;5132302;27;20927;-70
2021/11/27 09:26:37;;;;;;;9.20;5.33;;;;;;;17.27;100.00;100308.13;5132913;27;20161;-69
2021/11/27 09:29:04;;;;;;;9.10;4.07;;;;;;;17.40;100.00;100305.06;5133054;27;20394;-64
2021/11/27 09:31:30;;;;;;;9.80;4.93;;;;;;;17.27;100.00;100312.63;5143630;27;20524;-69
2021/11/27 09:33:55;;;;;;;12.17;5.60;;;;;;;17.13;100.00;100325.47;5146348;27;20826;-70
2021/11/27 09:36:23;;;;;;;8.53;4.60;;;;;;;16.98;100.00;100324.34;5137575;27;20210;-68
2021/11/27 09:38:50;;;;;;;9.03;5.00;;;;;;;16.96;100.00;100328.16;5138315;27;20189;-67
2021/11/27 09:41:28;;;;;;;9.67;4.23;;;;;;;17.14;100.00;100324.47;5138039;27;20399;-64
2021/11/27 09:43:57;;;;;;;8.07;4.20;;;;;;;17.15;100.00;100322.63;5132221;27;20407;-67
2021/11/27 09:46:24;;;;;;;16.87;6.70;;;;;;;17.26;100.00;100324.22;5148869;27;20851;-60
2021/11/27 09:48:53;;;;;;;16.40;5.13;;;;;;;17.35;100.00;100334.75;5132394;27;20400;-71
2021/11/27 09:51:24;;;;;;;13.03;4.77;;;;;;;17.52;100.00;100334.84;5140955;27;20450;-64
2021/11/27 09:53:51;;;;;;;8.43;4.17;;;;;;;17.52;100.00;100337.50;5152896;27;20406;-66
2021/11/27 09:56:19;;;;;;;7.90;3.40;;;;;;;17.81;100.00;100327.38;5151992;27;20464;-70
2021/11/27 09:58:45;;;;;;;7.43;3.60;;;;;;;17.85;100.00;100315.44;5152892;27;20387;-66
2021/11/27 10:01:13;;;;;;;20.93;5.67;;;;;;;18.07;100.00;100294.59;5144946;27;20938;-66
2021/11/27 10:03:40;;;;;;;10.30;3.70;;;;;;;18.04;100.00;100298.38;5132150;27;20419;-63
2021/11/27 10:06:06;;;;;;;9.30;3.20;;;;;;;17.77;100.00;100301.31;5132160;27;20748;-64
2021/11/27 10:08:35;;;;;;;19.23;4.93;;;;;;;17.63;100.00;100303.53;5131194;27;20915;-63
2021/11/27 10:11:01;;;;;;;8.30;3.13;;;;;;;17.36;100.00;100293.91;5136474;27;20446;-67
2021/11/27 10:13:27;;;;;;;10.50;3.97;;;;;;;17.22;100.00;100291.81;5151727;27;20495;-64
2021/11/27 10:15:53;;;;;;;7.60;3.80;;;;;;;17.36;100.00;100293.91;5152389;27;20399;-61
2021/11/27 10:18:22;;;;;;;6.33;3.03;;;;;;;17.36;100.00;100291.25;5152682;27;20410;-65
2021/11/27 10:21:14;;;;;;;11.30;4.20;;;;;;;17.29;100.00;100290.22;5148310;27;20217;-68
2021/11/27 10:23:39;;;;;;;7.60;4.53;;;;;;;17.42;100.00;100287.13;5131949;27;20424;-69
2021/11/27 10:26:05;;;;;;;14.03;4.50;;;;;;;17.53;100.00;100286.03;5131821;27;20868;-65
2021/11/27 10:28:31;;;;;;;12.40;4.47;;;;;;;17.45;100.00;100290.31;5131333;27;20155;-64
2021/11/27 10:31:03;;;;;;;10.20;4.23;;;;;;;17.55;100.00;100289.38;5135306;27;20459;-68
2021/11/27 10:33:38;;;;;;;7.90;4.27;;;;;;;17.69;100.00;100286.13;5152595;27;20446;-68
2021/11/27 10:36:09;;;;;;;9.00;5.03;;;;;;;17.89;100.00;100274.25;5152168;27;20403;-69
2021/11/27 10:38:43;;;;;;;10.33;4.20;;;;;;;18.03;100.00;100283.44;5152086;27;20426;-70
2021/11/27 10:41:12;;;;;;;9.70;4.50;;;;;;;18.22;100.00;100285.00;5145932;27;20465;-70
2021/11/27 10:43:57;;;;;;;7.37;4.23;;;;;;;18.10;100.00;100291.59;5148027;27;20518;-71
2021/11/27 10:46:28;;;;;;;9.63;4.00;;;;;;;17.86;100.00;100293.19;5144757;27;20408;-70
2021/11/27 10:48:53;;;;;;;7.40;3.83;;;;;;;17.85;100.00;100291.53;5133450;27;20419;-68
2021/11/27 10:51:21;;;;;;;10.00;3.97;;;;;;;18.02;100.00;100281.78;5135182;27;21050;-66
2021/11/27 10:53:54;;;;;;;10.27;3.80;;;;;;;18.21;100.00;100276.19;5130845;28;20249;-70
2021/11/27 10:56:19;;;;;;;8.63;4.10;;;;;;;18.26;100.00;100278.34;5130091;28;20495;-69
2021/11/27 10:59:01;;;;;;;8.93;4.20;;;;;;;18.21;100.00;100277.97;5132142;27;20881;-67
2021/11/27 11:01:27;;;;;;;12.20;4.73;;;;;;;17.86;100.00;100279.91;5131066;27;20325;-70
2021/11/27 11:03:53;;;;;;;10.20;4.70;;;;;;;17.87;100.00;100278.91;5131035;28;20522;-71
2021/11/27 11:06:22;;;;;;;7.87;3.53;;;;;;;17.87;100.00;100275.41;5132531;27;20403;-70
2021/11/27 11:08:50;;;;;;;10.40;4.43;;;;;;;17.71;100.00;100284.16;5150892;27;20265;-71